createdAt,value
2018-04-12T00:00:06.872Z,994.25
2018-04-12T00:01:06.849Z,994.26
2018-04-12T00:02:06.826Z,994.25
2018-04-12T00:03:06.807Z,994.23
2018-04-12T00:04:06.776Z,994.25
2018-04-12T00:05:06.753Z,994.22
2018-04-12T00:06:06.732Z,994.22
2018-04-12T00:07:06.707Z,994.21
2018-04-12T00:08:06.685Z,994.17
2018-04-12T00:09:06.661Z,994.16
2018-04-12T00:10:06.636Z,994.17
2018-04-12T00:11:06.613Z,994.13
2018-04-12T00:12:06.589Z,994.16
2018-04-12T00:13:06.566Z,994.17
2018-04-12T00:14:06.541Z,994.17
2018-04-12T00:15:06.518Z,994.15
2018-04-12T00:16:06.494Z,994.1
2018-04-12T00:17:06.472Z,994.13
2018-04-12T00:18:06.447Z,994.09
2018-04-12T00:19:06.423Z,994.08
2018-04-12T00:20:06.402Z,994.1
2018-04-12T00:21:06.376Z,994.1
2018-04-12T00:22:06.352Z,994.11
2018-04-12T00:23:06.328Z,994.08
2018-04-12T00:24:06.305Z,994.07
2018-04-12T00:25:06.281Z,994.1
2018-04-12T00:26:06.257Z,994.07
2018-04-12T00:27:06.233Z,994.01
2018-04-12T00:28:06.209Z,993.99
2018-04-12T00:29:06.185Z,993.98
2018-04-12T00:30:06.162Z,994.04
2018-04-12T00:31:06.138Z,994
2018-04-12T00:32:06.113Z,993.98
2018-04-12T00:33:06.091Z,993.93
2018-04-12T00:34:06.066Z,993.96
2018-04-12T00:35:06.043Z,993.95
2018-04-12T00:36:06.018Z,993.97
2018-04-12T00:37:06.014Z,993.92
2018-04-12T00:38:05.971Z,993.88
2018-04-12T00:39:05.947Z,993.9
2018-04-12T00:40:05.938Z,993.88
2018-04-12T00:41:05.901Z,993.88
2018-04-12T00:42:05.876Z,993.86
2018-04-12T00:43:05.852Z,993.86
2018-04-12T00:44:05.827Z,993.83
2018-04-12T00:45:05.809Z,993.82
2018-04-12T00:46:05.780Z,993.83
2018-04-12T00:47:05.756Z,993.78
2018-04-12T00:48:05.732Z,993.81
2018-04-12T00:49:05.708Z,993.78
2018-04-12T00:50:05.687Z,993.79
2018-04-12T00:51:05.660Z,993.82
2018-04-12T00:52:05.640Z,993.82
2018-04-12T00:53:05.613Z,993.77
2018-04-12T00:54:05.588Z,993.77
2018-04-12T00:55:05.568Z,993.74
2018-04-12T00:56:05.540Z,993.76
2018-04-12T00:57:05.522Z,993.76
2018-04-12T00:58:05.492Z,993.76
2018-04-12T00:59:05.470Z,993.78
2018-04-12T01:00:05.445Z,993.78
2018-04-12T01:01:05.420Z,993.71
2018-04-12T01:02:05.396Z,993.7
2018-04-12T01:03:05.374Z,993.69
2018-04-12T01:04:05.348Z,993.69
2018-04-12T01:05:05.324Z,993.68
2018-04-12T01:06:05.301Z,993.7
2018-04-12T01:07:05.277Z,993.72
2018-04-12T01:08:05.254Z,993.73
2018-04-12T01:09:05.228Z,993.7
2018-04-12T01:10:05.206Z,993.69
2018-04-12T01:11:05.181Z,993.72
2018-04-12T01:12:05.158Z,993.68
2018-04-12T01:13:05.133Z,993.7
2018-04-12T01:14:05.109Z,993.68
2018-04-12T01:15:05.085Z,993.7
2018-04-12T01:16:05.067Z,993.67
2018-04-12T01:17:05.056Z,993.71
2018-04-12T01:18:05.015Z,993.68
2018-04-12T01:19:04.988Z,993.66
2018-04-12T01:20:04.963Z,993.66
2018-04-12T01:21:04.940Z,993.63
2018-04-12T01:22:04.918Z,993.65
2018-04-12T01:23:04.894Z,993.62
2018-04-12T01:24:04.868Z,993.6
2018-04-12T01:25:04.844Z,993.58
2018-04-12T01:26:04.820Z,993.61
2018-04-12T01:27:04.795Z,993.54
2018-04-12T01:28:04.774Z,993.5
2018-04-12T01:29:04.747Z,993.51
2018-04-12T01:30:04.824Z,993.5
2018-04-12T01:31:04.697Z,993.45
2018-04-12T01:32:04.674Z,993.45
2018-04-12T01:33:04.650Z,993.42
2018-04-12T01:34:04.626Z,993.4
2018-04-12T01:35:04.602Z,993.41
2018-04-12T01:36:04.578Z,993.37
2018-04-12T01:37:04.554Z,993.36
2018-04-12T01:38:04.528Z,993.33
2018-04-12T01:39:04.507Z,993.36
2018-04-12T01:40:04.484Z,993.34
2018-04-12T01:41:04.455Z,993.34
2018-04-12T01:42:04.439Z,993.32
2018-04-12T01:43:04.407Z,993.32
2018-04-12T01:44:04.384Z,993.35
2018-04-12T01:45:04.359Z,993.33
2018-04-12T01:46:04.335Z,993.32
2018-04-12T01:47:04.311Z,993.32
2018-04-12T01:48:04.287Z,993.3
2018-04-12T01:49:04.262Z,993.26
2018-04-12T01:50:04.238Z,993.28
2018-04-12T01:51:04.213Z,993.22
2018-04-12T01:52:04.187Z,993.24
2018-04-12T01:53:04.164Z,993.24
2018-04-12T01:54:04.141Z,993.2
2018-04-12T01:55:04.118Z,993.18
2018-04-12T01:56:04.091Z,993.15
2018-04-12T01:57:04.065Z,993.16
2018-04-12T01:58:04.042Z,993.13
2018-04-12T01:59:04.021Z,993.12
2018-04-12T02:00:03.993Z,993.15
2018-04-12T02:01:03.970Z,993.13
2018-04-12T02:02:03.946Z,993.15
2018-04-12T02:03:03.920Z,993.15
2018-04-12T02:04:03.901Z,993.16
2018-04-12T02:05:03.871Z,993.18
2018-04-12T02:06:03.850Z,993.19
2018-04-12T02:07:03.823Z,993.18
2018-04-12T02:08:03.798Z,993.19
2018-04-12T02:09:03.774Z,993.21
2018-04-12T02:10:03.753Z,993.19
2018-04-12T02:11:03.725Z,993.21
2018-04-12T02:12:03.702Z,993.17
2018-04-12T02:13:03.680Z,993.2
2018-04-12T02:14:03.653Z,993.15
2018-04-12T02:15:03.629Z,993.1
2018-04-12T02:16:03.608Z,993.05
2018-04-12T02:17:03.579Z,993.06
2018-04-12T02:18:03.554Z,993.02
2018-04-12T02:19:03.532Z,993.01
2018-04-12T02:20:03.506Z,993.04
2018-04-12T02:21:03.492Z,993.07
2018-04-12T02:22:03.457Z,993.06
2018-04-12T02:23:03.432Z,993.07
2018-04-12T02:24:03.409Z,993.09
2018-04-12T02:25:03.384Z,993.06
2018-04-12T02:26:03.361Z,993.04
2018-04-12T02:27:03.334Z,993.04
2018-04-12T02:28:03.311Z,992.99
2018-04-12T02:29:03.286Z,992.96
2018-04-12T02:30:03.262Z,992.95
2018-04-12T02:31:03.237Z,992.95
2018-04-12T02:32:03.213Z,992.92
2018-04-12T02:33:03.187Z,992.88
2018-04-12T02:34:03.164Z,992.84
2018-04-12T02:35:03.187Z,992.84
2018-04-12T02:36:03.115Z,992.79
2018-04-12T02:37:03.090Z,992.76
2018-04-12T02:38:03.065Z,992.72
2018-04-12T02:39:03.041Z,992.77
2018-04-12T02:40:03.021Z,992.66
2018-04-12T02:41:02.992Z,992.72
2018-04-12T02:42:02.967Z,992.65
2018-04-12T02:43:02.943Z,992.64
2018-04-12T02:44:02.917Z,992.62
2018-04-12T02:45:02.894Z,992.61
2018-04-12T02:46:02.870Z,992.65
2018-04-12T02:47:02.844Z,992.6
2018-04-12T02:48:02.819Z,992.63
2018-04-12T02:49:02.795Z,992.62
2018-04-12T02:50:02.774Z,992.56
2018-04-12T02:51:02.746Z,992.55
2018-04-12T02:52:02.721Z,992.5
2018-04-12T02:53:02.696Z,992.53
2018-04-12T02:54:02.678Z,992.57
2018-04-12T02:55:02.647Z,992.58
2018-04-12T02:56:02.627Z,992.58
2018-04-12T02:57:02.599Z,992.53
2018-04-12T02:58:02.572Z,992.55
2018-04-12T02:59:02.549Z,992.54
2018-04-12T03:00:02.527Z,992.53
2018-04-12T03:01:02.500Z,992.52
2018-04-12T03:02:02.492Z,992.5
2018-04-12T03:03:02.450Z,992.53
2018-04-12T03:04:02.437Z,992.55
2018-04-12T03:05:02.408Z,992.54
2018-04-12T03:06:02.376Z,992.55
2018-04-12T03:07:02.352Z,992.53
2018-04-12T03:08:02.329Z,992.51
2018-04-12T03:09:02.302Z,992.5
2018-04-12T03:10:02.277Z,992.49
2018-04-12T03:11:02.253Z,992.52
2018-04-12T03:12:02.228Z,992.51
2018-04-12T03:13:02.201Z,992.54
2018-04-12T03:14:02.181Z,992.53
2018-04-12T03:15:02.153Z,992.51
2018-04-12T03:16:02.131Z,992.43
2018-04-12T03:17:02.104Z,992.43
2018-04-12T03:18:02.080Z,992.39
2018-04-12T03:19:02.056Z,992.39
2018-04-12T03:20:02.031Z,992.36
2018-04-12T03:21:02.005Z,992.33
2018-04-12T03:22:01.980Z,992.31
2018-04-12T03:23:01.958Z,992.3
2018-04-12T03:24:01.932Z,992.34
2018-04-12T03:25:01.906Z,992.29
2018-04-12T03:26:01.882Z,992.31
2018-04-12T03:27:01.856Z,992.28
2018-04-12T03:28:01.831Z,992.3
2018-04-12T03:29:01.807Z,992.3
2018-04-12T03:30:01.788Z,992.26
2018-04-12T03:31:01.757Z,992.27
2018-04-12T03:32:01.732Z,992.23
2018-04-12T03:33:01.708Z,992.2
2018-04-12T03:34:01.683Z,992.23
2018-04-12T03:35:01.657Z,992.21
2018-04-12T03:36:01.632Z,992.2
2018-04-12T03:37:01.608Z,992.18
2018-04-12T03:38:01.586Z,992.2
2018-04-12T03:39:01.560Z,992.18
2018-04-12T03:40:01.533Z,992.18
2018-04-12T03:41:01.508Z,992.18
2018-04-12T03:42:01.483Z,992.19
2018-04-12T03:43:01.456Z,992.16
2018-04-12T03:44:01.433Z,992.12
2018-04-12T03:45:01.410Z,992.16
2018-04-12T03:46:01.385Z,992.13
2018-04-12T03:47:01.358Z,992.13
2018-04-12T03:48:01.334Z,992.12
2018-04-12T03:49:01.372Z,992.09
2018-04-12T03:50:01.296Z,992.06
2018-04-12T03:51:01.258Z,992.07
2018-04-12T03:52:01.234Z,992.04
2018-04-12T03:53:01.207Z,992.03
2018-04-12T03:54:01.183Z,992.03
2018-04-12T03:55:01.158Z,992.04
2018-04-12T03:56:01.134Z,992.06
2018-04-12T03:57:01.155Z,992.1
2018-04-12T03:58:01.084Z,992.1
2018-04-12T03:59:01.058Z,992.11
2018-04-12T04:00:01.035Z,992.1
2018-04-12T04:01:01.007Z,992.11
2018-04-12T04:02:00.982Z,992.1
2018-04-12T04:03:00.958Z,992.07
2018-04-12T04:04:00.933Z,992.08
2018-04-12T04:05:00.908Z,992.04
2018-04-12T04:06:00.885Z,992.05
2018-04-12T04:07:00.860Z,992.06
2018-04-12T04:08:00.834Z,992.04
2018-04-12T04:09:00.808Z,992.05
2018-04-12T04:10:00.783Z,992.01
2018-04-12T04:11:00.757Z,992.03
2018-04-12T04:12:00.757Z,992.04
2018-04-12T04:13:00.708Z,991.96
2018-04-12T04:14:00.683Z,991.93
2018-04-12T04:15:00.657Z,991.91
2018-04-12T04:16:00.632Z,991.93
2018-04-12T04:17:00.608Z,991.99
2018-04-12T04:18:00.583Z,991.95
2018-04-12T04:19:00.557Z,991.93
2018-04-12T04:20:00.532Z,991.97
2018-04-12T04:21:00.505Z,991.94
2018-04-12T04:22:00.481Z,991.95
2018-04-12T04:23:00.457Z,991.96
2018-04-12T04:24:00.431Z,991.87
2018-04-12T04:25:00.409Z,991.88
2018-04-12T04:26:00.381Z,991.85
2018-04-12T04:27:00.357Z,991.85
2018-04-12T04:28:00.332Z,991.85
2018-04-12T04:29:00.307Z,991.84
2018-04-12T04:30:00.281Z,991.83
2018-04-12T04:31:00.255Z,991.85
2018-04-12T04:32:00.232Z,991.88
2018-04-12T04:33:00.206Z,991.8
2018-04-12T04:34:00.182Z,991.83
2018-04-12T04:35:00.157Z,991.82
2018-04-12T04:36:00.132Z,991.8
2018-04-12T04:37:00.105Z,991.78
2018-04-12T04:38:00.081Z,991.81
2018-04-12T04:39:00.057Z,991.75
2018-04-12T04:40:00.031Z,991.75
2018-04-12T04:41:00.004Z,991.73
2018-04-12T04:41:59.981Z,991.76
2018-04-12T04:42:59.955Z,991.81
2018-04-12T04:43:59.929Z,991.82
2018-04-12T04:44:59.905Z,991.83
2018-04-12T04:45:59.879Z,991.84
2018-04-12T04:46:59.857Z,991.81
2018-04-12T04:47:59.828Z,991.8
2018-04-12T04:48:59.803Z,991.83
2018-04-12T04:49:59.779Z,991.81
2018-04-12T04:50:59.753Z,991.78
2018-04-12T04:51:59.728Z,991.78
2018-04-12T04:52:59.703Z,991.75
2018-04-12T04:53:59.679Z,991.77
2018-04-12T04:54:59.703Z,991.76
2018-04-12T04:55:59.629Z,991.78
2018-04-12T04:56:59.608Z,991.76
2018-04-12T04:57:59.581Z,991.77
2018-04-12T04:58:59.552Z,991.75
2018-04-12T04:59:59.526Z,991.75
2018-04-12T05:00:59.503Z,991.75
2018-04-12T05:01:59.477Z,991.75
2018-04-12T05:02:59.454Z,991.74
2018-04-12T05:03:59.426Z,991.74
2018-04-12T05:04:59.402Z,991.76
2018-04-12T05:05:59.376Z,991.77
2018-04-12T05:06:59.351Z,991.75
2018-04-12T05:07:59.327Z,991.77
2018-04-12T05:08:59.301Z,991.71
2018-04-12T05:09:59.276Z,991.71
2018-04-12T05:10:59.251Z,991.67
2018-04-12T05:11:59.226Z,991.7
2018-04-12T05:12:59.200Z,991.63
2018-04-12T05:13:59.271Z,991.66
2018-04-12T05:14:59.150Z,991.65
2018-04-12T05:15:59.124Z,991.66
2018-04-12T05:16:59.099Z,991.66
2018-04-12T05:17:59.161Z,991.64
2018-04-12T05:18:59.143Z,991.61
2018-04-12T05:19:59.224Z,991.68
2018-04-12T05:20:59.149Z,991.65
2018-04-12T05:21:59.275Z,991.63
2018-04-12T05:22:58.950Z,991.59
2018-04-12T05:23:58.923Z,991.6
2018-04-12T05:24:58.899Z,991.63
2018-04-12T05:25:58.874Z,991.65
2018-04-12T05:26:58.849Z,991.6
2018-04-12T05:27:58.824Z,991.63
2018-04-12T05:28:58.799Z,991.6
2018-04-12T05:29:58.775Z,991.63
2018-04-12T05:30:58.750Z,991.63
2018-04-12T05:31:58.725Z,991.66
2018-04-12T05:32:58.700Z,991.62
2018-04-12T05:33:58.675Z,991.57
2018-04-12T05:34:58.720Z,991.58
2018-04-12T05:35:58.630Z,991.56
2018-04-12T05:36:58.602Z,991.57
2018-04-12T05:37:58.582Z,991.57
2018-04-12T05:38:58.552Z,991.55
2018-04-12T05:39:58.530Z,991.57
2018-04-12T05:40:58.535Z,991.58
2018-04-12T05:41:58.481Z,991.54
2018-04-12T05:42:58.455Z,991.54
2018-04-12T05:43:58.431Z,991.56
2018-04-12T05:44:58.407Z,991.53
2018-04-12T05:45:58.385Z,991.51
2018-04-12T05:46:58.356Z,991.55
2018-04-12T05:47:58.333Z,991.52
2018-04-12T05:48:58.309Z,991.52
2018-04-12T05:49:58.283Z,991.54
2018-04-12T05:50:58.259Z,991.54
2018-04-12T05:51:58.235Z,991.53
2018-04-12T05:52:58.213Z,991.58
2018-04-12T05:53:58.189Z,991.51
2018-04-12T05:54:58.163Z,991.54
2018-04-12T05:55:58.139Z,991.54
2018-04-12T05:56:58.118Z,991.5
2018-04-12T05:57:58.090Z,991.53
2018-04-12T05:58:58.065Z,991.54
2018-04-12T05:59:58.043Z,991.51
2018-04-12T06:00:58.018Z,991.5
2018-04-12T06:01:57.993Z,991.49
2018-04-12T06:02:57.973Z,991.47
2018-04-12T06:03:57.949Z,991.48
2018-04-12T06:04:57.923Z,991.43
2018-04-12T06:05:57.899Z,991.42
2018-04-12T06:06:57.877Z,991.42
2018-04-12T06:07:57.852Z,991.43
2018-04-12T06:08:57.827Z,991.41
2018-04-12T06:09:57.806Z,991.36
2018-04-12T06:10:57.782Z,991.4
2018-04-12T06:11:57.758Z,991.44
2018-04-12T06:12:57.828Z,991.35
2018-04-12T06:13:57.741Z,991.41
2018-04-12T06:14:57.948Z,991.37
2018-04-12T06:15:57.665Z,991.38
2018-04-12T06:16:57.642Z,991.34
2018-04-12T06:17:57.620Z,991.39
2018-04-12T06:18:57.595Z,991.33
2018-04-12T06:19:57.572Z,991.4
2018-04-12T06:20:57.549Z,991.37
2018-04-12T06:21:57.529Z,991.36
2018-04-12T06:22:57.503Z,991.36
2018-04-12T06:23:57.580Z,991.34
2018-04-12T06:24:57.458Z,991.37
2018-04-12T06:25:57.436Z,991.38
2018-04-12T06:26:57.413Z,991.34
2018-04-12T06:27:57.394Z,991.37
2018-04-12T06:28:57.480Z,991.34
2018-04-12T06:29:57.345Z,991.32
2018-04-12T06:30:57.321Z,991.32
2018-04-12T06:31:57.299Z,991.35
2018-04-12T06:32:57.277Z,991.36
2018-04-12T06:33:57.255Z,991.39
2018-04-12T06:34:57.233Z,991.32
2018-04-12T06:35:57.208Z,991.31
2018-04-12T06:36:57.184Z,991.27
2018-04-12T06:37:57.163Z,991.29
2018-04-12T06:38:57.142Z,991.22
2018-04-12T06:39:57.119Z,991.26
2018-04-12T06:40:57.096Z,991.28
2018-04-12T06:41:57.072Z,991.27
2018-04-12T06:42:57.053Z,991.23
2018-04-12T06:43:57.030Z,991.21
2018-04-12T06:44:57.005Z,991.18
2018-04-12T06:45:56.984Z,991.24
2018-04-12T06:46:56.962Z,991.17
2018-04-12T06:47:56.941Z,991.14
2018-04-12T06:48:56.916Z,991.18
2018-04-12T06:49:56.900Z,991.12
2018-04-12T06:50:56.871Z,991.1
2018-04-12T06:51:56.849Z,991.14
2018-04-12T06:52:56.829Z,991.12
2018-04-12T06:53:56.803Z,991.17
2018-04-12T06:54:56.789Z,991.16
2018-04-12T06:55:56.760Z,991.17
2018-04-12T06:56:56.738Z,991.08
2018-04-12T06:57:56.716Z,991.11
2018-04-12T06:58:56.693Z,991.11
2018-04-12T06:59:56.671Z,991.13
2018-04-12T07:00:56.650Z,991.09
2018-04-12T07:01:56.627Z,991.11
2018-04-12T07:02:56.605Z,991.11
2018-04-12T07:03:56.584Z,991.08
2018-04-12T07:04:56.563Z,991.09
2018-04-12T07:05:56.594Z,991.08
2018-04-12T07:06:56.519Z,991.1
2018-04-12T07:07:56.497Z,991.09
2018-04-12T07:08:56.476Z,991.05
2018-04-12T07:09:56.683Z,991.04
2018-04-12T07:10:56.432Z,991.06
2018-04-12T07:11:56.412Z,991.03
2018-04-12T07:12:56.390Z,991.04
2018-04-12T07:13:56.369Z,991.05
2018-04-12T07:14:56.390Z,991.04
2018-04-12T07:15:56.326Z,991.05
2018-04-12T07:16:56.499Z,991.08
2018-04-12T07:17:56.283Z,991.12
2018-04-12T07:18:56.262Z,991.1
2018-04-12T07:19:56.243Z,991.15
2018-04-12T07:20:56.220Z,991.1
2018-04-12T07:21:56.198Z,991.13
2018-04-12T07:22:56.374Z,991.14
2018-04-12T07:23:56.157Z,991.16
2018-04-12T07:24:56.134Z,991.15
2018-04-12T07:25:56.113Z,991.14
2018-04-12T07:26:56.093Z,991.18
2018-04-12T07:27:56.071Z,991.22
2018-04-12T07:28:56.049Z,991.17
2018-04-12T07:29:56.056Z,991.18
2018-04-12T07:30:56.006Z,991.19
2018-04-12T07:31:55.985Z,991.11
2018-04-12T07:32:55.990Z,991.14
2018-04-12T07:33:55.944Z,991.12
2018-04-12T07:34:55.923Z,991.11
2018-04-12T07:35:55.906Z,991.12
2018-04-12T07:36:55.878Z,991.17
2018-04-12T07:37:55.857Z,991.13
2018-04-12T07:38:55.837Z,991.2
2018-04-12T07:39:55.814Z,991.2
2018-04-12T07:40:55.794Z,991.22
2018-04-12T07:41:55.773Z,991.23
2018-04-12T07:42:55.751Z,991.25
2018-04-12T07:43:55.730Z,991.28
2018-04-12T07:44:55.709Z,991.3
2018-04-12T07:45:55.977Z,991.24
2018-04-12T07:46:55.666Z,991.24
2018-04-12T07:47:55.645Z,991.2
2018-04-12T07:48:55.880Z,991.2
2018-04-12T07:49:55.604Z,991.16
2018-04-12T07:50:55.583Z,991.15
2018-04-12T07:51:55.561Z,991.17
2018-04-12T07:52:55.542Z,991.17
2018-04-12T07:53:55.520Z,991.13
2018-04-12T07:54:55.498Z,991.16
2018-04-12T07:55:55.478Z,991.12
2018-04-12T07:56:55.458Z,991.13
2018-04-12T07:57:55.437Z,991.28
2018-04-12T07:58:55.416Z,991.11
2018-04-12T07:59:55.395Z,991.15
2018-04-12T08:00:55.375Z,991.07
2018-04-12T08:01:55.355Z,991.05
2018-04-12T08:02:55.334Z,991.16
2018-04-12T08:03:55.420Z,991.11
2018-04-12T08:04:55.769Z,991.14
2018-04-12T08:05:55.275Z,991.09
2018-04-12T08:06:55.252Z,991.06
2018-04-12T08:07:55.231Z,991.03
2018-04-12T08:08:55.209Z,991.09
2018-04-12T08:09:55.190Z,991.09
2018-04-12T08:10:55.170Z,991.07
2018-04-12T08:11:55.147Z,991.11
2018-04-12T08:12:55.571Z,991.02
2018-04-12T08:13:55.111Z,991.07
2018-04-12T08:14:55.087Z,991.02
2018-04-12T08:15:55.068Z,991.05
2018-04-12T08:16:55.097Z,991.03
2018-04-12T08:17:55.025Z,990.96
2018-04-12T08:18:55.272Z,990.96
2018-04-12T08:19:54.984Z,990.95
2018-04-12T08:20:54.967Z,990.93
2018-04-12T08:21:54.942Z,990.96
2018-04-12T08:22:54.922Z,990.94
2018-04-12T08:23:54.901Z,990.92
2018-04-12T08:24:54.882Z,990.94
2018-04-12T08:25:54.859Z,990.9
2018-04-12T08:26:54.839Z,990.9
2018-04-12T08:27:54.819Z,990.92
2018-04-12T08:28:54.845Z,990.94
2018-04-12T08:29:54.829Z,990.88
2018-04-12T08:30:54.758Z,990.88
2018-04-12T08:31:54.738Z,990.84
2018-04-12T08:32:54.718Z,990.81
2018-04-12T08:33:54.698Z,990.79
2018-04-12T08:34:54.677Z,990.79
2018-04-12T08:35:54.658Z,990.83
2018-04-12T08:36:54.640Z,990.75
2018-04-12T08:37:54.620Z,990.85
2018-04-12T08:38:54.603Z,990.84
2018-04-12T08:39:54.582Z,990.78
2018-04-12T08:40:54.562Z,990.73
2018-04-12T08:41:54.544Z,990.66
2018-04-12T08:42:54.524Z,990.68
2018-04-12T08:43:54.542Z,990.71
2018-04-12T08:44:54.488Z,990.76
2018-04-12T08:45:54.487Z,990.71
2018-04-12T08:46:54.453Z,990.62
2018-04-12T08:47:54.439Z,990.72
2018-04-12T08:48:54.414Z,990.71
2018-04-12T08:49:54.398Z,990.69
2018-04-12T08:50:54.380Z,990.68
2018-04-12T08:51:54.361Z,990.7
2018-04-12T08:52:54.344Z,990.61
2018-04-12T08:53:54.325Z,990.55
2018-04-12T08:54:54.307Z,990.61
2018-04-12T08:55:54.339Z,990.59
2018-04-12T08:56:54.269Z,990.59
2018-04-12T08:57:54.253Z,990.59
2018-04-12T08:58:54.236Z,990.58
2018-04-12T08:59:54.215Z,990.57
2018-04-12T09:00:54.198Z,990.52
2018-04-12T09:01:54.179Z,990.51
2018-04-12T09:02:54.159Z,990.52
2018-04-12T09:03:54.163Z,990.5
2018-04-12T09:04:54.417Z,990.5
2018-04-12T09:05:54.395Z,990.54
2018-04-12T09:06:54.086Z,990.51
2018-04-12T09:07:54.068Z,990.47
2018-04-12T09:08:54.049Z,990.52
2018-04-12T09:09:54.032Z,990.46
2018-04-12T09:10:54.016Z,990.38
2018-04-12T09:11:53.994Z,990.32
2018-04-12T09:12:53.974Z,990.18
2018-04-12T09:13:53.955Z,990.23
2018-04-12T09:14:53.935Z,990.19
2018-04-12T09:15:53.971Z,990.05
2018-04-12T09:16:53.898Z,990.13
2018-04-12T09:17:53.928Z,990.14
2018-04-12T09:18:53.859Z,990.13
2018-04-12T09:19:53.840Z,989.99
2018-04-12T09:20:53.820Z,989.91
2018-04-12T09:21:53.806Z,989.83
2018-04-12T09:22:53.781Z,989.85
2018-04-12T09:23:53.766Z,989.88
2018-04-12T09:24:53.744Z,989.94
2018-04-12T09:25:53.724Z,990.07
2018-04-12T09:26:53.704Z,990.16
2018-04-12T09:27:53.686Z,990.18
2018-04-12T09:28:53.665Z,990.18
2018-04-12T09:29:53.646Z,990.1
2018-04-12T09:30:53.627Z,990.1
2018-04-12T09:31:53.608Z,990.09
2018-04-12T09:32:53.588Z,990.09
2018-04-12T09:33:53.570Z,990.16
2018-04-12T09:34:53.548Z,990.07
2018-04-12T09:35:53.534Z,990.13
2018-04-12T09:36:53.510Z,990.13
2018-04-12T09:37:53.492Z,990.05
2018-04-12T09:38:53.473Z,990.05
2018-04-12T09:39:53.454Z,990.04
2018-04-12T09:40:53.437Z,990.05
2018-04-12T09:41:53.417Z,990.14
2018-04-12T09:42:53.399Z,990.06
2018-04-12T09:43:53.383Z,990.06
2018-04-12T09:44:53.360Z,990
2018-04-12T09:45:53.343Z,990.04
2018-04-12T09:46:53.324Z,990.07
2018-04-12T09:47:53.306Z,990.07
2018-04-12T09:48:53.289Z,990.06
2018-04-12T09:49:53.271Z,990.03
2018-04-12T09:50:53.252Z,989.99
2018-04-12T09:51:53.235Z,989.99
2018-04-12T09:52:53.218Z,990
2018-04-12T09:53:53.201Z,989.93
2018-04-12T09:54:53.183Z,989.92
2018-04-12T09:55:53.166Z,989.94
2018-04-12T09:56:53.148Z,989.89
2018-04-12T09:57:53.135Z,989.88
2018-04-12T09:58:53.113Z,989.91
2018-04-12T09:59:53.170Z,989.92
2018-04-12T10:00:53.081Z,989.91
2018-04-12T10:01:53.064Z,989.83
2018-04-12T10:02:53.047Z,989.9
2018-04-12T10:03:53.033Z,989.88
2018-04-12T10:04:53.022Z,989.9
2018-04-12T10:05:53.045Z,989.87
2018-04-12T10:06:52.981Z,989.85
2018-04-12T10:07:53.104Z,989.86
2018-04-12T10:08:53.088Z,989.84
2018-04-12T10:09:53.049Z,989.76
2018-04-12T10:10:52.917Z,989.78
2018-04-12T10:11:52.901Z,989.75
2018-04-12T10:12:52.884Z,989.76
2018-04-12T10:13:52.868Z,989.73
2018-04-12T10:14:53.011Z,989.74
2018-04-12T10:15:53.178Z,989.76
2018-04-12T10:16:53.225Z,989.68
2018-04-12T10:17:52.806Z,989.72
2018-04-12T10:18:52.794Z,989.72
2018-04-12T10:19:52.772Z,989.75
2018-04-12T10:20:52.757Z,989.77
2018-04-12T10:21:52.744Z,989.77
2018-04-12T10:22:52.725Z,989.83
2018-04-12T10:23:52.719Z,989.83
2018-04-12T10:24:52.702Z,989.79
2018-04-12T10:25:52.678Z,989.83
2018-04-12T10:26:52.663Z,989.84
2018-04-12T10:27:52.646Z,989.93
2018-04-12T10:28:52.630Z,989.83
2018-04-12T10:29:52.691Z,989.85
2018-04-12T10:30:52.599Z,989.85
2018-04-12T10:31:52.584Z,989.76
2018-04-12T10:32:52.594Z,989.84
2018-04-12T10:33:52.552Z,989.86
2018-04-12T10:34:52.536Z,989.86
2018-04-12T10:35:52.520Z,989.89
2018-04-12T10:36:52.505Z,989.95
2018-04-12T10:37:52.489Z,989.94
2018-04-12T10:38:52.473Z,989.97
2018-04-12T10:39:52.457Z,989.95
2018-04-12T10:40:52.442Z,989.94
2018-04-12T10:41:52.425Z,989.95
2018-04-12T10:42:52.411Z,989.9
2018-04-12T10:43:52.393Z,989.88
2018-04-12T10:44:52.379Z,989.88
2018-04-12T10:45:52.361Z,989.83
2018-04-12T10:46:52.346Z,989.75
2018-04-12T10:47:52.330Z,989.82
2018-04-12T10:48:52.313Z,989.91
2018-04-12T10:49:52.297Z,989.92
2018-04-12T10:50:52.283Z,989.94
2018-04-12T10:51:52.266Z,989.95
2018-04-12T10:52:52.250Z,989.87
2018-04-12T10:53:52.234Z,989.91
2018-04-12T10:54:52.219Z,989.84
2018-04-12T10:55:52.202Z,989.86
2018-04-12T10:56:52.185Z,989.86
2018-04-12T10:57:52.170Z,989.86
2018-04-12T10:58:52.155Z,989.88
2018-04-12T10:59:52.140Z,989.85
2018-04-12T11:00:52.124Z,989.8
2018-04-12T11:01:52.108Z,989.77
2018-04-12T11:02:52.097Z,989.76
2018-04-12T11:03:52.078Z,989.82
2018-04-12T11:04:52.063Z,989.77
2018-04-12T11:05:52.047Z,989.74
2018-04-12T11:06:52.033Z,989.75
2018-04-12T11:07:52.017Z,989.74
2018-04-12T11:08:52.002Z,989.71
2018-04-12T11:09:51.988Z,989.75
2018-04-12T11:10:51.977Z,989.74
2018-04-12T11:11:51.958Z,989.77
2018-04-12T11:12:51.947Z,989.77
2018-04-12T11:13:52.228Z,989.8
2018-04-12T11:14:51.923Z,989.81
2018-04-12T11:15:51.900Z,989.82
2018-04-12T11:16:51.884Z,989.79
2018-04-12T11:17:51.870Z,989.8
2018-04-12T11:18:51.856Z,989.76
2018-04-12T11:19:51.840Z,989.74
2018-04-12T11:20:51.827Z,989.79
2018-04-12T11:21:51.811Z,989.8
2018-04-12T11:22:51.897Z,989.77
2018-04-12T11:23:52.171Z,989.73
2018-04-12T11:24:51.784Z,989.74
2018-04-12T11:25:51.782Z,989.73
2018-04-12T11:26:51.741Z,989.79
2018-04-12T11:27:51.726Z,989.79
2018-04-12T11:28:51.712Z,989.81
2018-04-12T11:29:51.706Z,989.76
2018-04-12T11:30:51.686Z,989.75
2018-04-12T11:31:51.673Z,989.81
2018-04-12T11:32:51.658Z,989.84
2018-04-12T11:33:51.645Z,989.78
2018-04-12T11:34:51.662Z,989.73
2018-04-12T11:35:51.618Z,989.75
2018-04-12T11:36:51.641Z,989.66
2018-04-12T11:37:51.593Z,989.59
2018-04-12T11:38:51.579Z,989.62
2018-04-12T11:39:51.566Z,989.51
2018-04-12T11:40:51.552Z,989.52
2018-04-12T11:41:51.540Z,989.5
2018-04-12T11:42:51.551Z,989.48
2018-04-12T11:43:51.512Z,989.51
2018-04-12T11:44:51.499Z,989.52
2018-04-12T11:45:51.487Z,989.54
2018-04-12T11:46:51.495Z,989.54
2018-04-12T11:47:51.461Z,989.35
2018-04-12T11:48:51.447Z,989.54
2018-04-12T11:49:51.478Z,989.46
2018-04-12T11:50:51.422Z,989.51
2018-04-12T11:51:51.406Z,989.54
2018-04-12T11:52:51.394Z,989.55
2018-04-12T11:53:51.379Z,989.61
2018-04-12T11:54:51.367Z,989.55
2018-04-12T11:55:51.375Z,989.58
2018-04-12T11:56:51.339Z,989.58
2018-04-12T11:57:51.325Z,989.63
2018-04-12T11:58:51.311Z,989.58
2018-04-12T11:59:51.297Z,989.62
2018-04-12T12:00:51.283Z,989.6
2018-04-12T12:01:51.270Z,989.65
2018-04-12T12:02:51.254Z,989.56
2018-04-12T12:03:51.241Z,989.57
2018-04-12T12:04:51.226Z,989.55
2018-04-12T12:05:51.212Z,989.58
2018-04-12T12:06:51.198Z,989.55
2018-04-12T12:07:51.185Z,989.54
2018-04-12T12:08:51.172Z,989.51
2018-04-12T12:09:51.156Z,989.51
2018-04-12T12:10:51.143Z,989.44
2018-04-12T12:11:51.129Z,989.47
2018-04-12T12:12:51.117Z,989.45
2018-04-12T12:13:51.100Z,989.46
2018-04-12T12:14:51.092Z,989.53
2018-04-12T12:15:51.074Z,989.48
2018-04-12T12:16:51.656Z,989.49
2018-04-12T12:17:51.621Z,989.44
2018-04-12T12:18:51.030Z,989.45
2018-04-12T12:19:51.087Z,989.42
2018-04-12T12:20:51.004Z,989.4
2018-04-12T12:21:50.989Z,989.48
2018-04-12T12:22:50.975Z,989.45
2018-04-12T12:23:51.094Z,989.4
2018-04-12T12:24:50.950Z,989.41
2018-04-12T12:25:50.934Z,989.39
2018-04-12T12:26:50.919Z,989.36
2018-04-12T12:27:50.905Z,989.38
2018-04-12T12:28:50.900Z,989.33
2018-04-12T12:29:50.879Z,989.29